Porto-Novo, Benin
Current Conditions -  °F | °C
As of 1:00 PM on Tuesday 21 Oct 2014 (Local Time) from DBBB Reporting Station
Scattered Clouds Scattered Clouds  
Wind Chill: 86°   Ceiling: Unl
Heat Index: 102°   Visibility: 6mi
Dew Point: 81°   Wind: 12mph
Humidity: 84%   Direction: 210°SSW
Pressure: 29.85"   Gusts: NA
Location:  6.48°N, 2.63°E
Report Text: DBBB 211200Z 21010KT 180V260 9999 SCT014 30/27 Q1011 NOSIG
Loading
Personal Weather Stations






























Interactive Weather Map
Tropical Storm Tracking
New forecast layout! Learn more

10-Day Weather Forecast

Advertisements
Track Severe Weather on mobile